sensor_id;sensor_type;location;lat;lon;timestamp;P1;durP1;ratioP1;P2;durP2;ratioP2
48375;SDS011;34178;50.904;11.560;2023-05-20T00:02:05;13.57;;;8.98;;
48375;SDS011;34178;50.904;11.560;2023-05-20T00:04:31;13.05;;;8.77;;
48375;SDS011;34178;50.904;11.560;2023-05-20T00:06:56;16.33;;;9.38;;
48375;SDS011;34178;50.904;11.560;2023-05-20T00:09:22;16.77;;;9.82;;
48375;SDS011;34178;50.904;11.560;2023-05-20T00:11:48;15.52;;;9.10;;
48375;SDS011;34178;50.904;11.560;2023-05-20T00:14:13;16.67;;;9.55;;
48375;SDS011;34178;50.904;11.560;2023-05-20T00:16:39;15.30;;;9.25;;
48375;SDS011;34178;50.904;11.560;2023-05-20T00:19:05;15.30;;;9.70;;
48375;SDS011;34178;50.904;11.560;2023-05-20T00:21:31;14.07;;;9.10;;
48375;SDS011;34178;50.904;11.560;2023-05-20T00:23:57;14.38;;;9.60;;
48375;SDS011;34178;50.904;11.560;2023-05-20T00:26:23;14.23;;;10.07;;
48375;SDS011;34178;50.904;11.560;2023-05-20T00:28:50;15.07;;;9.43;;
48375;SDS011;34178;50.904;11.560;2023-05-20T00:31:15;13.70;;;9.10;;
48375;SDS011;34178;50.904;11.560;2023-05-20T00:33:41;15.63;;;9.63;;
48375;SDS011;34178;50.904;11.560;2023-05-20T00:36:06;15.93;;;10.35;;
48375;SDS011;34178;50.904;11.560;2023-05-20T00:38:32;16.33;;;10.40;;
48375;SDS011;34178;50.904;11.560;2023-05-20T00:40:58;17.42;;;10.75;;
48375;SDS011;34178;50.904;11.560;2023-05-20T00:43:24;15.80;;;10.57;;
48375;SDS011;34178;50.904;11.560;2023-05-20T00:45:53;16.98;;;10.68;;
48375;SDS011;34178;50.904;11.560;2023-05-20T00:48:19;16.40;;;11.02;;
48375;SDS011;34178;50.904;11.560;2023-05-20T00:50:46;15.80;;;11.23;;
48375;SDS011;34178;50.904;11.560;2023-05-20T00:53:13;18.90;;;12.05;;
48375;SDS011;34178;50.904;11.560;2023-05-20T00:55:42;16.75;;;11.20;;
48375;SDS011;34178;50.904;11.560;2023-05-20T00:58:08;19.00;;;11.88;;
48375;SDS011;34178;50.904;11.560;2023-05-20T01:00:34;16.25;;;11.80;;
48375;SDS011;34178;50.904;11.560;2023-05-20T01:03:00;22.15;;;11.98;;
48375;SDS011;34178;50.904;11.560;2023-05-20T01:05:26;16.75;;;11.80;;
48375;SDS011;34178;50.904;11.560;2023-05-20T01:07:51;19.75;;;12.73;;
48375;SDS011;34178;50.904;11.560;2023-05-20T01:10:17;20.48;;;13.02;;
48375;SDS011;34178;50.904;11.560;2023-05-20T01:12:49;23.50;;;12.68;;
48375;SDS011;34178;50.904;11.560;2023-05-20T01:15:20;17.02;;;11.43;;
48375;SDS011;34178;50.904;11.560;2023-05-20T01:17:49;21.25;;;12.35;;
48375;SDS011;34178;50.904;11.560;2023-05-20T01:20:16;18.23;;;12.35;;
48375;SDS011;34178;50.904;11.560;2023-05-20T01:22:48;19.63;;;12.88;;
48375;SDS011;34178;50.904;11.560;2023-05-20T01:25:16;19.92;;;13.02;;
48375;SDS011;34178;50.904;11.560;2023-05-20T01:27:42;19.30;;;12.45;;
48375;SDS011;34178;50.904;11.560;2023-05-20T01:30:08;19.67;;;12.77;;
48375;SDS011;34178;50.904;11.560;2023-05-20T01:32:40;20.08;;;12.52;;
48375;SDS011;34178;50.904;11.560;2023-05-20T01:35:07;17.40;;;12.23;;
48375;SDS011;34178;50.904;11.560;2023-05-20T01:37:38;20.13;;;13.18;;
48375;SDS011;34178;50.904;11.560;2023-05-20T01:40:14;17.05;;;11.30;;
48375;SDS011;34178;50.904;11.560;2023-05-20T01:42:41;18.17;;;13.07;;
48375;SDS011;34178;50.904;11.560;2023-05-20T01:45:09;22.30;;;13.30;;
48375;SDS011;34178;50.904;11.560;2023-05-20T01:47:35;16.50;;;11.70;;
48375;SDS011;34178;50.904;11.560;2023-05-20T01:50:01;17.67;;;12.48;;
48375;SDS011;34178;50.904;11.560;2023-05-20T01:52:27;17.52;;;11.85;;
48375;SDS011;34178;50.904;11.560;2023-05-20T01:54:53;20.85;;;13.52;;
48375;SDS011;34178;50.904;11.560;2023-05-20T01:57:19;18.17;;;12.25;;
48375;SDS011;34178;50.904;11.560;2023-05-20T01:59:45;19.25;;;13.55;;
48375;SDS011;34178;50.904;11.560;2023-05-20T02:02:11;20.33;;;13.18;;
48375;SDS011;34178;50.904;11.560;2023-05-20T02:04:38;21.63;;;14.05;;
48375;SDS011;34178;50.904;11.560;2023-05-20T02:07:03;24.10;;;13.45;;
48375;SDS011;34178;50.904;11.560;2023-05-20T02:09:29;25.13;;;15.23;;
48375;SDS011;34178;50.904;11.560;2023-05-20T02:11:55;20.38;;;14.45;;
48375;SDS011;34178;50.904;11.560;2023-05-20T02:14:21;21.45;;;14.20;;
48375;SDS011;34178;50.904;11.560;2023-05-20T02:16:46;22.92;;;15.60;;
48375;SDS011;34178;50.904;11.560;2023-05-20T02:19:12;18.80;;;12.95;;
48375;SDS011;34178;50.904;11.560;2023-05-20T02:21:40;22.48;;;15.07;;
48375;SDS011;34178;50.904;11.560;2023-05-20T02:24:06;21.88;;;15.20;;
48375;SDS011;34178;50.904;11.560;2023-05-20T02:26:33;22.00;;;14.90;;
48375;SDS011;34178;50.904;11.560;2023-05-20T02:28:59;22.25;;;15.05;;
48375;SDS011;34178;50.904;11.560;2023-05-20T02:31:24;23.02;;;15.32;;
48375;SDS011;34178;50.904;11.560;2023-05-20T02:33:50;22.58;;;15.50;;
48375;SDS011;34178;50.904;11.560;2023-05-20T02:36:16;24.65;;;15.55;;
48375;SDS011;34178;50.904;11.560;2023-05-20T02:38:43;20.73;;;15.00;;
48375;SDS011;34178;50.904;11.560;2023-05-20T02:41:09;24.42;;;15.13;;
48375;SDS011;34178;50.904;11.560;2023-05-20T02:43:34;19.83;;;14.52;;
48375;SDS011;34178;50.904;11.560;2023-05-20T02:46:00;20.45;;;14.55;;
48375;SDS011;34178;50.904;11.560;2023-05-20T02:48:26;25.50;;;16.60;;
48375;SDS011;34178;50.904;11.560;2023-05-20T02:50:52;24.25;;;14.77;;
48375;SDS011;34178;50.904;11.560;2023-05-20T02:53:18;22.83;;;15.30;;
48375;SDS011;34178;50.904;11.560;2023-05-20T02:55:44;21.17;;;15.35;;
48375;SDS011;34178;50.904;11.560;2023-05-20T03:00:41;20.73;;;14.25;;
48375;SDS011;34178;50.904;11.560;2023-05-20T03:03:07;22.35;;;14.93;;
48375;SDS011;34178;50.904;11.560;2023-05-20T03:05:37;21.73;;;14.65;;
48375;SDS011;34178;50.904;11.560;2023-05-20T03:08:06;23.52;;;14.85;;
48375;SDS011;34178;50.904;11.560;2023-05-20T03:10:34;21.20;;;14.90;;
48375;SDS011;34178;50.904;11.560;2023-05-20T03:13:00;24.02;;;14.85;;
48375;SDS011;34178;50.904;11.560;2023-05-20T03:15:26;24.77;;;14.57;;
48375;SDS011;34178;50.904;11.560;2023-05-20T03:17:51;20.23;;;14.40;;
48375;SDS011;34178;50.904;11.560;2023-05-20T03:20:17;21.35;;;14.75;;
48375;SDS011;34178;50.904;11.560;2023-05-20T03:22:44;21.95;;;14.23;;
48375;SDS011;34178;50.904;11.560;2023-05-20T03:25:10;20.88;;;15.55;;
48375;SDS011;34178;50.904;11.560;2023-05-20T03:27:35;23.13;;;14.63;;
48375;SDS011;34178;50.904;11.560;2023-05-20T03:30:02;20.33;;;13.70;;
48375;SDS011;34178;50.904;11.560;2023-05-20T03:32:29;23.25;;;15.48;;
48375;SDS011;34178;50.904;11.560;2023-05-20T03:34:54;21.67;;;14.77;;
48375;SDS011;34178;50.904;11.560;2023-05-20T03:37:22;20.27;;;15.07;;
48375;SDS011;34178;50.904;11.560;2023-05-20T03:39:47;23.33;;;15.18;;
48375;SDS011;34178;50.904;11.560;2023-05-20T03:42:13;18.73;;;14.02;;
48375;SDS011;34178;50.904;11.560;2023-05-20T03:44:39;22.08;;;14.68;;
48375;SDS011;34178;50.904;11.560;2023-05-20T03:47:05;21.38;;;14.48;;
48375;SDS011;34178;50.904;11.560;2023-05-20T03:49:30;21.73;;;14.40;;
48375;SDS011;34178;50.904;11.560;2023-05-20T03:51:56;18.92;;;13.77;;
48375;SDS011;34178;50.904;11.560;2023-05-20T03:54:22;19.10;;;14.02;;
48375;SDS011;34178;50.904;11.560;2023-05-20T03:56:47;17.70;;;13.63;;
48375;SDS011;34178;50.904;11.560;2023-05-20T03:59:13;22.88;;;15.27;;
48375;SDS011;34178;50.904;11.560;2023-05-20T04:01:39;21.00;;;13.68;;
48375;SDS011;34178;50.904;11.560;2023-05-20T04:04:05;21.80;;;13.65;;
48375;SDS011;34178;50.904;11.560;2023-05-20T04:06:31;20.88;;;13.27;;
48375;SDS011;34178;50.904;11.560;2023-05-20T04:08:57;23.35;;;13.30;;
48375;SDS011;34178;50.904;11.560;2023-05-20T04:11:22;20.83;;;13.40;;
48375;SDS011;34178;50.904;11.560;2023-05-20T04:13:48;21.48;;;14.60;;
48375;SDS011;34178;50.904;11.560;2023-05-20T04:16:14;22.35;;;13.65;;
48375;SDS011;34178;50.904;11.560;2023-05-20T04:18:39;20.60;;;13.60;;
48375;SDS011;34178;50.904;11.560;2023-05-20T04:21:05;22.10;;;14.18;;
48375;SDS011;34178;50.904;11.560;2023-05-20T04:23:32;20.00;;;14.73;;
48375;SDS011;34178;50.904;11.560;2023-05-20T04:25:58;18.48;;;12.63;;
48375;SDS011;34178;50.904;11.560;2023-05-20T04:28:26;19.45;;;14.02;;
48375;SDS011;34178;50.904;11.560;2023-05-20T04:30:59;22.40;;;13.63;;
48375;SDS011;34178;50.904;11.560;2023-05-20T04:33:28;18.45;;;12.55;;
48375;SDS011;34178;50.904;11.560;2023-05-20T04:35:54;21.13;;;14.68;;
48375;SDS011;34178;50.904;11.560;2023-05-20T04:38:23;19.38;;;13.23;;
48375;SDS011;34178;50.904;11.560;2023-05-20T04:40:58;21.52;;;15.45;;
48375;SDS011;34178;50.904;11.560;2023-05-20T04:43:24;23.08;;;15.23;;
48375;SDS011;34178;50.904;11.560;2023-05-20T04:45:53;25.50;;;17.20;;
48375;SDS011;34178;50.904;11.560;2023-05-20T04:48:23;22.58;;;15.38;;
48375;SDS011;34178;50.904;11.560;2023-05-20T04:50:49;21.95;;;15.25;;
48375;SDS011;34178;50.904;11.560;2023-05-20T04:53:19;24.92;;;15.98;;
48375;SDS011;34178;50.904;11.560;2023-05-20T04:55:47;22.73;;;15.57;;
48375;SDS011;34178;50.904;11.560;2023-05-20T04:58:19;26.40;;;17.30;;
48375;SDS011;34178;50.904;11.560;2023-05-20T05:00:48;26.08;;;17.85;;
48375;SDS011;34178;50.904;11.560;2023-05-20T05:03:15;28.08;;;19.70;;
48375;SDS011;34178;50.904;11.560;2023-05-20T05:05:41;26.35;;;18.67;;
48375;SDS011;34178;50.904;11.560;2023-05-20T05:08:07;26.88;;;19.13;;
48375;SDS011;34178;50.904;11.560;2023-05-20T05:10:35;27.95;;;19.92;;
48375;SDS011;34178;50.904;11.560;2023-05-20T05:13:01;27.23;;;19.48;;
48375;SDS011;34178;50.904;11.560;2023-05-20T05:15:27;30.35;;;22.27;;
48375;SDS011;34178;50.904;11.560;2023-05-20T05:17:53;29.58;;;21.17;;
48375;SDS011;34178;50.904;11.560;2023-05-20T05:20:19;29.98;;;21.75;;
48375;SDS011;34178;50.904;11.560;2023-05-20T05:22:45;32.58;;;23.60;;
48375;SDS011;34178;50.904;11.560;2023-05-20T05:25:11;32.80;;;22.38;;
48375;SDS011;34178;50.904;11.560;2023-05-20T05:27:37;29.92;;;21.60;;
48375;SDS011;34178;50.904;11.560;2023-05-20T05:30:03;32.88;;;23.25;;
48375;SDS011;34178;50.904;11.560;2023-05-20T05:32:31;31.33;;;23.45;;
48375;SDS011;34178;50.904;11.560;2023-05-20T05:34:57;31.35;;;23.25;;
48375;SDS011;34178;50.904;11.560;2023-05-20T05:37:23;30.83;;;22.75;;
48375;SDS011;34178;50.904;11.560;2023-05-20T05:39:48;31.67;;;23.02;;
48375;SDS011;34178;50.904;11.560;2023-05-20T05:42:14;32.28;;;23.10;;
48375;SDS011;34178;50.904;11.560;2023-05-20T05:44:40;33.05;;;23.38;;
48375;SDS011;34178;50.904;11.560;2023-05-20T05:47:05;34.13;;;22.48;;
48375;SDS011;34178;50.904;11.560;2023-05-20T05:49:31;29.88;;;22.85;;
48375;SDS011;34178;50.904;11.560;2023-05-20T05:51:57;32.13;;;23.77;;
48375;SDS011;34178;50.904;11.560;2023-05-20T05:54:23;33.50;;;23.77;;
48375;SDS011;34178;50.904;11.560;2023-05-20T05:56:52;33.70;;;24.48;;
48375;SDS011;34178;50.904;11.560;2023-05-20T05:59:20;32.20;;;24.42;;
48375;SDS011;34178;50.904;11.560;2023-05-20T06:01:46;32.45;;;23.27;;
48375;SDS011;34178;50.904;11.560;2023-05-20T06:04:11;32.10;;;24.02;;
48375;SDS011;34178;50.904;11.560;2023-05-20T06:06:37;32.28;;;24.33;;
48375;SDS011;34178;50.904;11.560;2023-05-20T06:09:03;32.30;;;24.45;;
48375;SDS011;34178;50.904;11.560;2023-05-20T06:11:29;32.58;;;24.80;;
48375;SDS011;34178;50.904;11.560;2023-05-20T06:13:54;32.90;;;22.60;;
48375;SDS011;34178;50.904;11.560;2023-05-20T06:16:20;32.38;;;22.88;;
48375;SDS011;34178;50.904;11.560;2023-05-20T06:18:46;30.67;;;22.65;;
48375;SDS011;34178;50.904;11.560;2023-05-20T06:21:14;29.67;;;21.40;;
48375;SDS011;34178;50.904;11.560;2023-05-20T06:23:40;33.17;;;22.48;;
48375;SDS011;34178;50.904;11.560;2023-05-20T06:26:06;35.63;;;22.08;;
48375;SDS011;34178;50.904;11.560;2023-05-20T06:28:32;28.40;;;20.85;;
48375;SDS011;34178;50.904;11.560;2023-05-20T06:30:58;28.27;;;21.73;;
48375;SDS011;34178;50.904;11.560;2023-05-20T06:33:23;30.38;;;21.05;;
48375;SDS011;34178;50.904;11.560;2023-05-20T06:35:53;32.85;;;21.08;;
48375;SDS011;34178;50.904;11.560;2023-05-20T06:38:20;30.63;;;21.50;;
48375;SDS011;34178;50.904;11.560;2023-05-20T06:40:46;29.95;;;21.83;;
48375;SDS011;34178;50.904;11.560;2023-05-20T06:43:15;29.33;;;20.10;;
48375;SDS011;34178;50.904;11.560;2023-05-20T06:45:42;27.35;;;20.13;;
48375;SDS011;34178;50.904;11.560;2023-05-20T06:48:08;30.55;;;21.27;;
48375;SDS011;34178;50.904;11.560;2023-05-20T06:50:33;28.98;;;21.23;;
48375;SDS011;34178;50.904;11.560;2023-05-20T06:52:59;26.98;;;20.55;;
48375;SDS011;34178;50.904;11.560;2023-05-20T06:55:25;28.77;;;19.58;;
48375;SDS011;34178;50.904;11.560;2023-05-20T06:57:51;26.25;;;19.27;;
48375;SDS011;34178;50.904;11.560;2023-05-20T07:00:17;28.55;;;19.95;;
48375;SDS011;34178;50.904;11.560;2023-05-20T07:02:43;27.98;;;20.45;;
48375;SDS011;34178;50.904;11.560;2023-05-20T07:05:09;26.33;;;19.35;;
48375;SDS011;34178;50.904;11.560;2023-05-20T07:07:34;24.60;;;18.33;;
48375;SDS011;34178;50.904;11.560;2023-05-20T07:10:00;27.08;;;19.13;;
48375;SDS011;34178;50.904;11.560;2023-05-20T07:12:29;24.98;;;18.20;;
48375;SDS011;34178;50.904;11.560;2023-05-20T07:14:58;25.90;;;19.33;;
48375;SDS011;34178;50.904;11.560;2023-05-20T07:17:23;24.85;;;18.30;;
48375;SDS011;34178;50.904;11.560;2023-05-20T07:19:49;23.77;;;18.77;;
48375;SDS011;34178;50.904;11.560;2023-05-20T07:22:15;27.95;;;19.40;;
48375;SDS011;34178;50.904;11.560;2023-05-20T07:24:41;24.33;;;18.92;;
48375;SDS011;34178;50.904;11.560;2023-05-20T07:27:07;26.33;;;18.90;;
48375;SDS011;34178;50.904;11.560;2023-05-20T07:29:33;26.27;;;20.77;;
48375;SDS011;34178;50.904;11.560;2023-05-20T07:31:59;26.17;;;19.85;;
48375;SDS011;34178;50.904;11.560;2023-05-20T07:34:25;24.92;;;19.15;;
48375;SDS011;34178;50.904;11.560;2023-05-20T07:36:51;27.20;;;19.00;;
48375;SDS011;34178;50.904;11.560;2023-05-20T07:39:17;25.42;;;20.02;;
48375;SDS011;34178;50.904;11.560;2023-05-20T07:41:43;24.13;;;19.58;;
48375;SDS011;34178;50.904;11.560;2023-05-20T07:44:09;26.42;;;18.98;;
48375;SDS011;34178;50.904;11.560;2023-05-20T07:46:36;26.50;;;19.08;;
48375;SDS011;34178;50.904;11.560;2023-05-20T07:49:02;25.23;;;18.85;;
48375;SDS011;34178;50.904;11.560;2023-05-20T07:51:28;25.20;;;19.20;;
48375;SDS011;34178;50.904;11.560;2023-05-20T07:53:55;25.35;;;19.05;;
48375;SDS011;34178;50.904;11.560;2023-05-20T07:56:21;25.95;;;18.50;;
48375;SDS011;34178;50.904;11.560;2023-05-20T07:58:54;24.60;;;18.30;;
48375;SDS011;34178;50.904;11.560;2023-05-20T08:01:22;25.77;;;20.48;;
48375;SDS011;34178;50.904;11.560;2023-05-20T08:03:48;26.48;;;19.77;;
48375;SDS011;34178;50.904;11.560;2023-05-20T08:06:13;28.13;;;18.75;;
48375;SDS011;34178;50.904;11.560;2023-05-20T08:08:39;24.08;;;18.27;;
48375;SDS011;34178;50.904;11.560;2023-05-20T08:11:05;24.38;;;17.38;;
48375;SDS011;34178;50.904;11.560;2023-05-20T08:13:31;24.02;;;18.83;;
48375;SDS011;34178;50.904;11.560;2023-05-20T08:15:57;23.50;;;18.08;;
48375;SDS011;34178;50.904;11.560;2023-05-20T08:18:23;24.20;;;18.00;;
48375;SDS011;34178;50.904;11.560;2023-05-20T08:20:48;21.55;;;17.25;;
48375;SDS011;34178;50.904;11.560;2023-05-20T08:23:14;23.77;;;16.88;;
48375;SDS011;34178;50.904;11.560;2023-05-20T08:25:40;20.92;;;16.40;;
48375;SDS011;34178;50.904;11.560;2023-05-20T08:28:06;22.23;;;16.02;;
48375;SDS011;34178;50.904;11.560;2023-05-20T08:30:32;25.15;;;16.20;;
48375;SDS011;34178;50.904;11.560;2023-05-20T08:32:59;22.52;;;16.15;;
48375;SDS011;34178;50.904;11.560;2023-05-20T08:35:25;20.63;;;15.90;;
48375;SDS011;34178;50.904;11.560;2023-05-20T08:37:51;20.42;;;15.95;;
48375;SDS011;34178;50.904;11.560;2023-05-20T08:40:18;22.45;;;16.02;;
48375;SDS011;34178;50.904;11.560;2023-05-20T08:42:45;23.00;;;16.48;;
48375;SDS011;34178;50.904;11.560;2023-05-20T08:45:13;21.52;;;15.48;;
48375;SDS011;34178;50.904;11.560;2023-05-20T08:47:42;20.45;;;14.48;;
48375;SDS011;34178;50.904;11.560;2023-05-20T08:50:11;23.55;;;16.55;;
48375;SDS011;34178;50.904;11.560;2023-05-20T08:52:42;23.70;;;17.05;;
48375;SDS011;34178;50.904;11.560;2023-05-20T08:55:23;23.90;;;17.30;;
48375;SDS011;34178;50.904;11.560;2023-05-20T08:57:51;21.95;;;15.18;;
48375;SDS011;34178;50.904;11.560;2023-05-20T09:00:19;23.83;;;16.67;;
48375;SDS011;34178;50.904;11.560;2023-05-20T09:02:47;26.02;;;16.02;;
48375;SDS011;34178;50.904;11.560;2023-05-20T09:05:13;21.10;;;15.77;;
48375;SDS011;34178;50.904;11.560;2023-05-20T09:07:39;23.65;;;16.25;;
48375;SDS011;34178;50.904;11.560;2023-05-20T09:10:06;23.25;;;16.52;;
48375;SDS011;34178;50.904;11.560;2023-05-20T09:12:32;23.25;;;17.15;;
48375;SDS011;34178;50.904;11.560;2023-05-20T09:14:58;25.38;;;17.77;;
48375;SDS011;34178;50.904;11.560;2023-05-20T09:17:24;23.77;;;16.55;;
48375;SDS011;34178;50.904;11.560;2023-05-20T09:19:49;26.80;;;17.50;;
48375;SDS011;34178;50.904;11.560;2023-05-20T09:22:24;22.00;;;16.27;;
48375;SDS011;34178;50.904;11.560;2023-05-20T09:24:53;21.65;;;16.50;;
48375;SDS011;34178;50.904;11.560;2023-05-20T09:27:19;23.30;;;17.35;;
48375;SDS011;34178;50.904;11.560;2023-05-20T09:29:46;24.27;;;17.40;;
48375;SDS011;34178;50.904;11.560;2023-05-20T09:32:13;27.58;;;18.38;;
48375;SDS011;34178;50.904;11.560;2023-05-20T09:34:39;22.23;;;18.23;;
48375;SDS011;34178;50.904;11.560;2023-05-20T09:37:09;24.83;;;16.70;;
48375;SDS011;34178;50.904;11.560;2023-05-20T09:39:50;25.58;;;16.38;;
48375;SDS011;34178;50.904;11.560;2023-05-20T09:42:29;21.60;;;17.50;;
48375;SDS011;34178;50.904;11.560;2023-05-20T09:45:02;21.77;;;16.27;;
48375;SDS011;34178;50.904;11.560;2023-05-20T09:47:29;24.80;;;17.50;;
48375;SDS011;34178;50.904;11.560;2023-05-20T09:49:55;21.75;;;15.68;;
48375;SDS011;34178;50.904;11.560;2023-05-20T09:52:22;22.95;;;16.13;;
48375;SDS011;34178;50.904;11.560;2023-05-20T09:54:49;26.30;;;18.73;;
48375;SDS011;34178;50.904;11.560;2023-05-20T09:57:15;24.30;;;18.08;;
48375;SDS011;34178;50.904;11.560;2023-05-20T09:59:41;24.10;;;18.13;;
48375;SDS011;34178;50.904;11.560;2023-05-20T10:02:09;23.85;;;17.55;;
48375;SDS011;34178;50.904;11.560;2023-05-20T10:04:36;22.83;;;17.13;;
48375;SDS011;34178;50.904;11.560;2023-05-20T10:07:25;23.33;;;17.80;;
48375;SDS011;34178;50.904;11.560;2023-05-20T10:24:31;21.27;;;15.63;;
48375;SDS011;34178;50.904;11.560;2023-05-20T10:27:00;22.25;;;16.33;;
48375;SDS011;34178;50.904;11.560;2023-05-20T10:29:27;24.90;;;15.77;;
48375;SDS011;34178;50.904;11.560;2023-05-20T10:31:53;22.15;;;16.00;;
48375;SDS011;34178;50.904;11.560;2023-05-20T10:34:20;24.17;;;15.82;;
48375;SDS011;34178;50.904;11.560;2023-05-20T10:36:56;19.10;;;15.18;;
48375;SDS011;34178;50.904;11.560;2023-05-20T10:39:29;22.63;;;14.88;;
48375;SDS011;34178;50.904;11.560;2023-05-20T10:42:07;24.40;;;17.63;;
48375;SDS011;34178;50.904;11.560;2023-05-20T10:44:41;22.63;;;16.27;;
48375;SDS011;34178;50.904;11.560;2023-05-20T10:47:07;24.00;;;16.90;;
48375;SDS011;34178;50.904;11.560;2023-05-20T10:49:33;23.02;;;16.60;;
48375;SDS011;34178;50.904;11.560;2023-05-20T10:52:02;20.85;;;16.35;;
48375;SDS011;34178;50.904;11.560;2023-05-20T10:54:28;19.25;;;15.13;;
48375;SDS011;34178;50.904;11.560;2023-05-20T10:56:59;22.77;;;17.15;;
48375;SDS011;34178;50.904;11.560;2023-05-20T10:59:30;21.48;;;16.77;;
48375;SDS011;34178;50.904;11.560;2023-05-20T11:01:55;22.08;;;16.15;;
48375;SDS011;34178;50.904;11.560;2023-05-20T11:04:21;22.15;;;16.67;;
48375;SDS011;34178;50.904;11.560;2023-05-20T11:06:51;20.80;;;16.23;;
48375;SDS011;34178;50.904;11.560;2023-05-20T11:09:21;21.40;;;15.70;;
48375;SDS011;34178;50.904;11.560;2023-05-20T11:11:47;20.38;;;15.65;;
48375;SDS011;34178;50.904;11.560;2023-05-20T11:14:14;23.38;;;16.35;;
48375;SDS011;34178;50.904;11.560;2023-05-20T11:16:42;22.20;;;16.50;;
48375;SDS011;34178;50.904;11.560;2023-05-20T11:19:15;21.05;;;16.38;;
48375;SDS011;34178;50.904;11.560;2023-05-20T11:21:43;22.98;;;16.67;;
48375;SDS011;34178;50.904;11.560;2023-05-20T11:24:10;22.83;;;16.80;;
48375;SDS011;34178;50.904;11.560;2023-05-20T11:26:36;21.83;;;16.50;;
48375;SDS011;34178;50.904;11.560;2023-05-20T11:29:02;24.30;;;16.30;;
48375;SDS011;34178;50.904;11.560;2023-05-20T11:31:29;23.52;;;17.63;;
48375;SDS011;34178;50.904;11.560;2023-05-20T11:33:56;22.80;;;16.75;;
48375;SDS011;34178;50.904;11.560;2023-05-20T11:36:28;25.45;;;17.58;;
48375;SDS011;34178;50.904;11.560;2023-05-20T11:38:55;25.23;;;16.95;;
48375;SDS011;34178;50.904;11.560;2023-05-20T11:41:25;23.77;;;16.55;;
48375;SDS011;34178;50.904;11.560;2023-05-20T11:43:58;26.50;;;17.38;;
48375;SDS011;34178;50.904;11.560;2023-05-20T11:46:24;22.88;;;15.93;;
48375;SDS011;34178;50.904;11.560;2023-05-20T11:48:54;24.27;;;16.90;;
48375;SDS011;34178;50.904;11.560;2023-05-20T11:51:25;24.40;;;17.85;;
48375;SDS011;34178;50.904;11.560;2023-05-20T11:53:51;27.25;;;17.23;;
48375;SDS011;34178;50.904;11.560;2023-05-20T11:56:17;22.10;;;16.90;;
48375;SDS011;34178;50.904;11.560;2023-05-20T11:58:45;23.10;;;17.55;;
48375;SDS011;34178;50.904;11.560;2023-05-20T12:01:11;25.95;;;17.15;;
48375;SDS011;34178;50.904;11.560;2023-05-20T12:03:36;24.63;;;16.60;;
48375;SDS011;34178;50.904;11.560;2023-05-20T12:06:02;28.63;;;19.05;;
48375;SDS011;34178;50.904;11.560;2023-05-20T12:08:28;22.88;;;16.92;;
48375;SDS011;34178;50.904;11.560;2023-05-20T12:10:54;26.90;;;18.95;;
48375;SDS011;34178;50.904;11.560;2023-05-20T12:13:20;25.58;;;19.00;;
48375;SDS011;34178;50.904;11.560;2023-05-20T12:15:47;23.63;;;18.02;;
48375;SDS011;34178;50.904;11.560;2023-05-20T12:18:13;25.58;;;18.30;;
48375;SDS011;34178;50.904;11.560;2023-05-20T12:20:38;28.30;;;17.63;;
48375;SDS011;34178;50.904;11.560;2023-05-20T12:23:04;27.27;;;19.27;;
48375;SDS011;34178;50.904;11.560;2023-05-20T12:25:30;27.05;;;18.52;;
48375;SDS011;34178;50.904;11.560;2023-05-20T12:27:56;22.05;;;17.63;;
48375;SDS011;34178;50.904;11.560;2023-05-20T12:30:23;25.45;;;17.25;;
48375;SDS011;34178;50.904;11.560;2023-05-20T12:32:49;22.40;;;17.25;;
48375;SDS011;34178;50.904;11.560;2023-05-20T12:35:16;24.63;;;18.50;;
48375;SDS011;34178;50.904;11.560;2023-05-20T12:37:42;24.70;;;17.88;;
48375;SDS011;34178;50.904;11.560;2023-05-20T12:40:09;27.15;;;17.67;;
48375;SDS011;34178;50.904;11.560;2023-05-20T12:42:37;28.20;;;18.55;;
48375;SDS011;34178;50.904;11.560;2023-05-20T12:45:04;27.40;;;19.75;;
48375;SDS011;34178;50.904;11.560;2023-05-20T12:47:30;22.80;;;17.42;;
48375;SDS011;34178;50.904;11.560;2023-05-20T12:49:57;28.48;;;19.30;;
48375;SDS011;34178;50.904;11.560;2023-05-20T12:52:23;28.27;;;18.95;;
48375;SDS011;34178;50.904;11.560;2023-05-20T12:54:49;25.55;;;19.23;;
48375;SDS011;34178;50.904;11.560;2023-05-20T12:57:15;24.05;;;18.15;;
48375;SDS011;34178;50.904;11.560;2023-05-20T12:59:43;22.88;;;18.55;;
48375;SDS011;34178;50.904;11.560;2023-05-20T13:02:08;26.02;;;18.52;;
48375;SDS011;34178;50.904;11.560;2023-05-20T13:04:34;24.27;;;17.23;;
48375;SDS011;34178;50.904;11.560;2023-05-20T13:07:00;26.52;;;17.67;;
48375;SDS011;34178;50.904;11.560;2023-05-20T13:09:26;24.13;;;17.70;;
48375;SDS011;34178;50.904;11.560;2023-05-20T13:11:52;22.00;;;17.27;;
48375;SDS011;34178;50.904;11.560;2023-05-20T13:14:17;24.65;;;17.92;;
48375;SDS011;34178;50.904;11.560;2023-05-20T13:16:43;25.80;;;17.05;;
48375;SDS011;34178;50.904;11.560;2023-05-20T13:19:09;23.10;;;17.77;;
48375;SDS011;34178;50.904;11.560;2023-05-20T13:21:35;26.08;;;17.88;;
48375;SDS011;34178;50.904;11.560;2023-05-20T13:24:01;23.27;;;18.00;;
48375;SDS011;34178;50.904;11.560;2023-05-20T13:26:28;24.05;;;16.92;;
48375;SDS011;34178;50.904;11.560;2023-05-20T13:28:53;21.30;;;15.75;;
48375;SDS011;34178;50.904;11.560;2023-05-20T13:31:19;22.25;;;15.85;;
48375;SDS011;34178;50.904;11.560;2023-05-20T13:33:45;20.77;;;16.02;;
48375;SDS011;34178;50.904;11.560;2023-05-20T13:36:11;22.80;;;17.63;;
48375;SDS011;34178;50.904;11.560;2023-05-20T13:38:37;20.77;;;16.30;;
48375;SDS011;34178;50.904;11.560;2023-05-20T13:41:03;24.00;;;16.10;;
48375;SDS011;34178;50.904;11.560;2023-05-20T13:43:30;23.70;;;15.80;;
48375;SDS011;34178;50.904;11.560;2023-05-20T13:45:55;18.27;;;14.73;;
48375;SDS011;34178;50.904;11.560;2023-05-20T13:48:21;19.42;;;14.07;;
48375;SDS011;34178;50.904;11.560;2023-05-20T13:50:47;21.08;;;14.63;;
48375;SDS011;34178;50.904;11.560;2023-05-20T13:53:13;22.27;;;15.75;;
48375;SDS011;34178;50.904;11.560;2023-05-20T13:55:39;23.90;;;16.42;;
48375;SDS011;34178;50.904;11.560;2023-05-20T13:58:05;19.15;;;14.45;;
48375;SDS011;34178;50.904;11.560;2023-05-20T14:00:36;17.92;;;14.23;;
48375;SDS011;34178;50.904;11.560;2023-05-20T14:03:02;22.55;;;15.02;;
48375;SDS011;34178;50.904;11.560;2023-05-20T14:05:31;19.40;;;13.60;;
48375;SDS011;34178;50.904;11.560;2023-05-20T14:07:57;17.85;;;14.27;;
48375;SDS011;34178;50.904;11.560;2023-05-20T14:10:23;20.50;;;14.85;;
48375;SDS011;34178;50.904;11.560;2023-05-20T14:12:50;17.30;;;14.02;;
48375;SDS011;34178;50.904;11.560;2023-05-20T14:15:16;18.65;;;14.52;;
48375;SDS011;34178;50.904;11.560;2023-05-20T14:17:42;16.85;;;14.10;;
48375;SDS011;34178;50.904;11.560;2023-05-20T14:20:08;19.67;;;14.63;;
48375;SDS011;34178;50.904;11.560;2023-05-20T14:22:34;20.23;;;14.63;;
48375;SDS011;34178;50.904;11.560;2023-05-20T14:25:00;17.35;;;14.55;;